Time;durP1;ratioP1;P1;durP2;ratioP2;P2;SDS_P1;SDS_P2;PMS_P1;PMS_P2;Temp;Humidity;BMP_temperature;BMP_pressure;BME280_temperature;BME280_humidity;BME280_pressure;Samples;Min_cycle;Max_cycle;Signal;HPM_P1;HPM_P2
2022/05/25 00:00:10;;;;;;;5.05;2.10;;;21.60;64.00;;;;;;4850845;29;20305;-88
2022/05/25 00:02:39;;;;;;;8.15;2.63;;;21.60;64.70;;;;;;4851299;29;20277;-88
2022/05/25 00:05:09;;;;;;;8.52;2.90;;;21.50;66.60;;;;;;4839426;29;20134;-83
2022/05/25 00:07:43;;;;;;;5.38;2.22;;;21.50;65.40;;;;;;4857714;29;20033;-89
2022/05/25 00:10:11;;;;;;;13.63;3.03;;;21.40;66.90;;;;;;4839710;29;20029;-84
2022/05/25 00:12:37;;;;;;;9.02;3.25;;;21.30;65.90;;;;;;4854612;29;20029;-82
2022/05/25 00:15:08;;;;;;;9.55;3.50;;;21.20;68.10;;;;;;4851307;29;20049;-95
2022/05/25 00:17:33;;;;;;;6.38;2.08;;;21.30;66.10;;;;;;4834068;29;20228;-80
2022/05/25 00:19:59;;;;;;;7.10;2.28;;;21.00;67.70;;;;;;4851061;29;20699;-88
2022/05/25 00:22:28;;;;;;;10.35;2.63;;;20.60;68.40;;;;;;4851756;29;20033;-87
2022/05/25 00:24:57;;;;;;;8.70;2.85;;;21.30;70.30;;;;;;4833670;29;20037;-88
2022/05/25 00:27:24;;;;;;;7.00;2.88;;;21.40;68.90;;;;;;4849811;29;20034;-87
2022/05/25 00:29:50;;;;;;;12.13;2.78;;;21.30;70.00;;;;;;4849801;29;20061;-84
2022/05/25 00:32:15;;;;;;;6.78;2.67;;;21.40;69.20;;;;;;4833732;29;20097;-83
2022/05/25 00:34:42;;;;;;;15.32;5.75;;;21.40;69.60;;;;;;4849782;29;20030;-85
2022/05/25 00:37:11;;;;;;;11.57;3.25;;;21.40;70.10;;;;;;4849773;29;20037;-90
2022/05/25 00:39:38;;;;;;;6.05;2.55;;;21.40;71.20;;;;;;4848647;29;20038;-87
2022/05/25 00:42:05;;;;;;;8.20;3.15;;;21.40;71.50;;;;;;4834090;29;20465;-85
2022/05/25 00:44:31;;;;;;;8.40;2.83;;;21.50;68.30;;;;;;4835732;29;20060;-81
2022/05/25 00:46:56;;;;;;;7.40;2.67;;;21.50;70.90;;;;;;4855359;29;20025;-86
2022/05/25 00:49:31;;;;;;;10.00;3.78;;;21.20;68.40;;;;;;4838305;29;20549;-92
2022/05/25 00:51:59;;;;;;;9.27;2.90;;;21.00;72.90;;;;;;4852889;29;20409;-95
2022/05/25 00:54:29;;;;;;;7.90;3.20;;;21.00;70.50;;;;;;4851283;29;20021;-91
2022/05/25 00:56:56;;;;;;;6.75;2.45;;;20.90;73.50;;;;;;4856896;29;20049;-91
2022/05/25 00:59:28;;;;;;;10.48;3.40;;;21.10;72.20;;;;;;4839252;29;20039;-81
2022/05/25 01:01:55;;;;;;;8.05;2.92;;;21.10;73.00;;;;;;4854355;29;20060;-86
2022/05/25 01:04:22;;;;;;;7.85;3.13;;;21.00;70.80;;;;;;4856345;29;20105;-85
2022/05/25 01:07:12;;;;;;;8.80;3.22;;;21.40;74.00;;;;;;4856124;29;20046;-85
2022/05/25 01:10:05;;;;;;;8.85;3.25;;;20.90;71.90;;;;;;4837887;29;20065;-83
2022/05/25 01:12:42;;;;;;;8.15;2.47;;;21.00;74.30;;;;;;4836377;29;20228;-85
2022/05/25 01:15:29;;;;;;;10.45;4.35;;;21.10;74.00;;;;;;4849574;29;20236;-83
2022/05/25 01:18:19;;;;;;;12.57;4.47;;;21.20;73.40;;;;;;4833079;29;20025;-86
2022/05/25 01:20:51;;;;;;;11.07;3.78;;;21.10;71.30;;;;;;4849409;29;20040;-90
2022/05/25 01:23:35;;;;;;;9.27;3.83;;;20.60;75.10;;;;;;4848583;29;20205;-84
2022/05/25 01:26:28;;;;;;;8.18;3.22;;;20.70;73.70;;;;;;4831439;29;20037;-87
2022/05/25 01:29:07;;;;;;;8.43;3.28;;;20.70;75.20;;;;;;4848894;29;20026;-85
2022/05/25 01:31:46;;;;;;;7.38;2.33;;;20.70;75.80;;;;;;4848331;29;20026;-82
2022/05/25 01:34:26;;;;;;;9.32;3.28;;;20.40;73.80;;;;;;4831787;29;20217;-80
2022/05/25 01:37:26;;;;;;;8.10;3.33;;;20.20;75.00;;;;;;4832003;29;20045;-84
2022/05/25 01:40:11;;;;;;;8.35;2.92;;;19.90;75.50;;;;;;4836189;29;20355;-84
2022/05/25 01:42:50;;;;;;;10.18;2.75;;;19.90;79.70;;;;;;4838570;29;20325;-84
2022/05/25 01:45:19;;;;;;;10.13;3.28;;;20.00;77.00;;;;;;4849737;29;20217;-83
2022/05/25 01:47:49;;;;;;;6.57;2.72;;;19.90;79.90;;;;;;4848807;29;20021;-85
2022/05/25 01:50:38;;;;;;;12.30;3.70;;;19.70;78.30;;;;;;4835340;29;20030;-89
2022/05/25 01:53:07;;;;;;;7.95;2.80;;;;;;;;;;4855418;29;20036;-88
2022/05/25 01:55:37;;;;;;;7.55;2.92;;;19.80;80.40;;;;;;4837152;29;20095;-89
2022/05/25 01:58:08;;;;;;;7.82;3.15;;;19.60;83.10;;;;;;4836046;29;20029;-85
2022/05/25 02:00:56;;;;;;;8.23;3.60;;;19.50;83.60;;;;;;4851931;29;20128;-87
2022/05/25 02:06:37;;;;;;;11.48;2.90;;;19.40;81.50;;;;;;4849456;29;20061;-91
2022/05/25 02:09:14;;;;;;;8.57;2.97;;;19.40;82.00;;;;;;4832125;29;20536;-85
2022/05/25 02:11:43;;;;;;;12.90;3.55;;;19.20;82.30;;;;;;4853456;29;20445;-90
2022/05/25 02:14:30;;;;;;;6.38;3.05;;;19.20;83.40;;;;;;4850543;29;20060;-91
2022/05/25 02:16:56;;;;;;;6.30;3.05;;;19.10;84.30;;;;;;4848971;29;20038;-85
2022/05/25 02:19:30;;;;;;;9.70;3.25;;;19.00;85.00;;;;;;4847948;29;20037;-91
2022/05/25 02:22:09;;;;;;;7.28;3.00;;;19.10;85.20;;;;;;4851011;29;20113;-87
2022/05/25 02:24:40;;;;;;;7.30;2.70;;;19.00;85.70;;;;;;4851873;29;20032;-83
2022/05/25 02:27:47;;;;;;;9.60;3.58;;;19.00;86.40;;;;;;4832243;29;20034;-87
2022/05/25 02:30:17;;;;;;;8.55;2.60;;;19.10;87.80;;;;;;4755199;30;20374;-88
2022/05/25 02:32:52;;;;;;;6.57;3.17;;;19.10;87.00;;;;;;4740358;30;20531;-91
2022/05/25 02:35:41;;;;;;;7.50;3.00;;;19.30;86.60;;;;;;4741270;30;20123;-88
2022/05/25 02:38:08;;;;;;;7.07;2.58;;;19.60;88.30;;;;;;4751087;30;20028;-82
2022/05/25 02:40:38;;;;;;;8.95;2.80;;;19.00;88.90;;;;;;4746291;30;20044;-89
2022/05/25 02:43:06;;;;;;;8.77;2.60;;;19.10;86.00;;;;;;4729304;30;20321;-82
2022/05/25 02:45:33;;;;;;;9.68;2.97;;;19.10;86.00;;;;;;4773202;29;20023;-96
2022/05/25 02:47:59;;;;;;;7.45;2.60;;;19.20;89.30;;;;;;4754579;30;20383;-92
2022/05/25 02:50:25;;;;;;;7.45;2.28;;;19.10;88.00;;;;;;4756221;30;20062;-96
2022/05/25 02:52:51;;;;;;;9.23;3.40;;;19.20;85.80;;;;;;4745694;30;20063;-88
2022/05/25 02:55:26;;;;;;;8.02;2.95;;;19.20;85.80;;;;;;4768235;30;20034;-87
2022/05/25 02:57:51;;;;;;;10.45;2.63;;;19.20;88.10;;;;;;4769028;30;20032;-85
2022/05/25 03:00:18;;;;;;;9.88;3.55;;;19.30;87.20;;;;;;4795486;29;20030;-86
2022/05/25 03:02:48;;;;;;;11.88;3.15;;;19.50;85.40;;;;;;4869186;29;20037;-95
2022/05/25 03:05:17;;;;;;;6.30;2.80;;;19.40;85.10;;;;;;4853537;29;20048;-84
2022/05/25 03:07:53;;;;;;;7.95;2.70;;;19.10;86.00;;;;;;4865252;29;20026;-84
2022/05/25 03:10:25;;;;;;;7.63;2.85;;;19.20;86.10;;;;;;4870037;29;20053;-84
2022/05/25 03:12:50;;;;;;;10.35;4.65;;;19.30;87.90;;;;;;4869823;29;20030;-88
2022/05/25 03:15:20;;;;;;;13.88;7.00;;;19.40;85.30;;;;;;4866205;29;20045;-87
2022/05/25 03:17:47;;;;;;;16.67;6.20;;;19.70;84.80;;;;;;4864172;29;20017;-94
2022/05/25 03:20:14;;;;;;;8.10;4.32;;;19.70;85.00;;;;;;4868207;29;20509;-84
2022/05/25 03:22:44;;;;;;;10.82;3.70;;;19.70;83.90;;;;;;4869411;29;20040;-92
2022/05/25 03:25:12;;;;;;;9.48;4.03;;;19.80;83.70;;;;;;4870177;29;20421;-83
2022/05/25 03:27:40;;;;;;;8.77;3.58;;;20.00;82.90;;;;;;4871740;29;20053;-83
2022/05/25 03:30:09;;;;;;;8.18;3.83;;;20.00;83.40;;;;;;4872956;29;20060;-84
2022/05/25 03:32:40;;;;;;;10.65;3.95;;;20.00;82.50;;;;;;4853160;29;20034;-91
2022/05/25 03:35:14;;;;;;;11.07;3.25;;;20.00;82.90;;;;;;4866274;29;20053;-93
2022/05/25 03:37:40;;;;;;;7.00;2.70;;;20.70;84.40;;;;;;4864704;29;20048;-82
2022/05/25 03:40:11;;;;;;;6.35;2.97;;;20.30;84.00;;;;;;4866872;29;20026;-85
2022/05/25 03:42:39;;;;;;;9.82;3.63;;;20.30;84.90;;;;;;4867362;29;20123;-84
2022/05/25 03:45:09;;;;;;;7.22;3.03;;;20.30;84.30;;;;;;4851924;29;20045;-83
2022/05/25 03:47:34;;;;;;;7.95;3.17;;;20.40;83.30;;;;;;4845654;29;20049;-85
2022/05/25 03:50:00;;;;;;;7.22;3.03;;;20.20;84.70;;;;;;4844030;29;20078;-85
2022/05/25 03:52:26;;;;;;;8.05;3.50;;;20.40;85.00;;;;;;4860727;29;20244;-85
2022/05/25 03:54:52;;;;;;;12.90;7.45;;;20.50;84.20;;;;;;4861313;29;20052;-81
2022/05/25 03:57:18;;;;;;;9.95;4.45;;;20.30;84.40;;;;;;4847206;29;20432;-82
2022/05/25 03:59:45;;;;;;;10.48;5.45;;;20.30;85.90;;;;;;4859962;29;20065;-82
2022/05/25 04:02:11;;;;;;;10.63;5.10;;;;;;;;;;4850288;29;20033;-84
2022/05/25 04:04:40;;;;;;;7.53;3.72;;;20.00;83.30;;;;;;4866336;29;20045;-89
2022/05/25 04:07:06;;;;;;;9.25;3.97;;;19.90;85.40;;;;;;4860871;29;20064;-91
2022/05/25 04:09:37;;;;;;;10.38;3.70;;;20.00;84.90;;;;;;4865866;29;20171;-94
2022/05/25 04:12:10;;;;;;;7.20;3.38;;;20.00;85.60;;;;;;4864062;29;20026;-93
2022/05/25 04:14:38;;;;;;;7.10;3.30;;;20.20;86.30;;;;;;4866688;29;20046;-82
2022/05/25 04:17:04;;;;;;;9.05;3.63;;;20.30;85.50;;;;;;4864137;29;20044;-83
2022/05/25 04:19:30;;;;;;;7.78;3.80;;;20.50;84.60;;;;;;4869447;29;20683;-83
2022/05/25 04:21:56;;;;;;;7.28;3.53;;;20.40;85.70;;;;;;4869650;29;20033;-85
2022/05/25 04:24:27;;;;;;;11.63;3.90;;;20.30;84.90;;;;;;4870063;29;20329;-87
2022/05/25 04:26:53;;;;;;;9.65;4.22;;;20.50;85.30;;;;;;4849452;29;20375;-84
2022/05/25 04:29:18;;;;;;;8.02;3.15;;;20.60;85.00;;;;;;4860088;29;20035;-82
2022/05/25 04:31:44;;;;;;;7.53;3.75;;;20.80;84.20;;;;;;4865567;29;20097;-85
2022/05/25 04:34:12;;;;;;;9.23;3.20;;;21.00;83.60;;;;;;4860935;29;20030;-93
2022/05/25 04:36:38;;;;;;;7.78;3.88;;;21.10;82.90;;;;;;4865389;29;20363;-85
2022/05/25 04:39:05;;;;;;;8.10;3.65;;;20.90;82.80;;;;;;4857758;29;20036;-81
2022/05/25 04:41:31;;;;;;;10.38;4.13;;;20.90;84.00;;;;;;4862953;29;20583;-84
2022/05/25 04:43:57;;;;;;;8.52;3.83;;;21.00;83.30;;;;;;4867037;29;20056;-85
2022/05/25 04:46:40;;;;;;;10.25;3.80;;;21.10;83.30;;;;;;4866347;29;20077;-85
2022/05/25 04:49:07;;;;;;;11.30;4.47;;;21.20;83.50;;;;;;4852690;29;20133;-90
2022/05/25 04:51:33;;;;;;;8.38;3.50;;;21.20;83.70;;;;;;4857503;29;20108;-85
2022/05/25 04:54:03;;;;;;;9.38;3.88;;;20.90;84.40;;;;;;4855198;29;20035;-88
2022/05/25 04:59:20;;;;;;;9.05;3.75;;;21.00;84.00;;;;;;4837955;29;20558;-88
2022/05/25 05:02:01;;;;;;;10.35;4.75;;;21.10;84.10;;;;;;4839789;29;20375;-94
2022/05/25 05:04:27;;;;;;;9.85;3.75;;;20.90;84.70;;;;;;4857241;29;20037;-81
2022/05/25 05:06:53;;;;;;;9.43;3.72;;;21.20;84.20;;;;;;4857741;29;20078;-87
2022/05/25 05:09:19;;;;;;;12.38;4.93;;;21.30;83.40;;;;;;4842971;29;20053;-95
2022/05/25 05:11:45;;;;;;;8.90;3.75;;;21.30;83.50;;;;;;4849343;29;20128;-86
2022/05/25 05:14:42;;;;;;;8.65;3.53;;;21.40;82.90;;;;;;4878981;29;20037;-82
2022/05/25 05:17:08;;;;;;;11.20;4.30;;;21.50;83.00;;;;;;4866714;29;20085;-81
2022/05/25 05:19:34;;;;;;;10.13;4.47;;;21.60;82.30;;;;;;4872267;29;20037;-86
2022/05/25 05:22:02;;;;;;;9.10;3.65;;;21.70;81.90;;;;;;4873944;29;20069;-95
2022/05/25 05:24:30;;;;;;;9.65;5.15;;;21.70;81.80;;;;;;4871348;29;20060;-87
2022/05/25 05:26:59;;;;;;;13.48;4.57;;;21.60;82.90;;;;;;4871515;29;20380;-94
2022/05/25 05:29:30;;;;;;;7.88;3.80;;;21.80;82.10;;;;;;4875134;29;20030;-82
2022/05/25 05:32:01;;;;;;;10.98;3.83;;;22.00;81.10;;;;;;4874255;29;20021;-87
2022/05/25 05:34:28;;;;;;;11.43;5.22;;;22.20;80.40;;;;;;4842527;29;20025;-92
2022/05/25 05:37:06;;;;;;;10.55;4.70;;;22.30;82.00;;;;;;4876232;29;20034;-81
2022/05/25 05:39:37;;;;;;;11.70;4.25;;;22.40;79.50;;;;;;4858634;29;20025;-83
2022/05/25 05:42:10;;;;;;;11.20;3.50;;;22.40;80.80;;;;;;4865870;29;20261;-81
2022/05/25 05:44:44;;;;;;;9.48;3.10;;;22.50;80.70;;;;;;4869290;29;20026;-80
2022/05/25 05:47:16;;;;;;;6.82;3.25;;;22.30;80.20;;;;;;4867539;29;20029;-83
2022/05/25 05:49:54;;;;;;;8.15;3.35;;;22.40;79.60;;;;;;4860122;29;20038;-94
2022/05/25 05:52:20;;;;;;;10.18;3.88;;;23.00;81.40;;;;;;4861193;29;20041;-89
2022/05/25 05:54:49;;;;;;;16.52;3.47;;;22.70;81.30;;;;;;4860273;29;20040;-86
2022/05/25 05:57:17;;;;;;;9.80;3.08;;;22.90;78.90;;;;;;4855701;29;20040;-83
2022/05/25 05:59:42;;;;;;;9.50;4.22;;;23.00;81.00;;;;;;4825162;29;20033;-85
2022/05/25 06:02:09;;;;;;;7.93;2.80;;;23.10;80.00;;;;;;4854696;29;20372;-84
2022/05/25 06:04:40;;;;;;;12.05;3.63;;;23.80;78.70;;;;;;4857158;29;20115;-95
2022/05/25 06:07:06;;;;;;;7.57;3.47;;;23.70;75.30;;;;;;4856637;29;20036;-86
2022/05/25 06:09:32;;;;;;;9.45;3.88;;;23.70;75.80;;;;;;4854971;29;20081;-84
2022/05/25 06:11:58;;;;;;;7.95;3.53;;;23.70;75.40;;;;;;4863453;29;20041;-83
2022/05/25 06:14:26;;;;;;;9.57;3.30;;;23.70;73.40;;;;;;4862599;29;20045;-95
2022/05/25 06:19:52;;;;;;;9.68;2.92;;;24.10;71.20;;;;;;4860217;29;20162;-96
2022/05/25 06:22:20;;;;;;;4.88;2.25;;;24.10;69.70;;;;;;4853431;29;20707;-82
2022/05/25 06:24:59;;;;;;;7.30;2.17;;;24.10;66.40;;;;;;4852099;29;20029;-96
2022/05/25 06:27:24;;;;;;;7.70;2.65;;;24.10;66.80;;;;;;4862571;29;20036;-81
2022/05/25 06:29:58;;;;;;;12.73;6.38;;;24.20;65.80;;;;;;4863375;29;20448;-80
2022/05/25 06:32:27;;;;;;;9.45;2.95;;;24.20;69.30;;;;;;4863772;29;20275;-92
2022/05/25 06:35:11;;;;;;;9.35;4.05;;;25.10;69.90;;;;;;4850460;29;20042;-91
2022/05/25 06:37:47;;;;;;;13.90;5.47;;;24.20;70.70;;;;;;4832009;29;20451;-94
2022/05/25 06:40:22;;;;;;;11.07;4.15;;;24.00;73.70;;;;;;4830568;29;20030;-92
2022/05/25 06:42:51;;;;;;;12.25;5.05;;;24.10;71.00;;;;;;4847502;29;20037;-82
2022/05/25 06:45:18;;;;;;;12.23;4.60;;;24.10;71.60;;;;;;4847272;29;20036;-84
2022/05/25 06:47:50;;;;;;;7.95;3.55;;;24.10;71.70;;;;;;4830517;29;20029;-93
2022/05/25 06:50:28;;;;;;;6.78;3.38;;;24.70;71.10;;;;;;4847624;29;20284;-86
2022/05/25 06:52:54;;;;;;;12.57;5.63;;;24.00;71.70;;;;;;4846482;29;20049;-84
2022/05/25 06:55:23;;;;;;;11.30;6.07;;;23.70;74.70;;;;;;4846786;29;20065;-88
2022/05/25 06:57:49;;;;;;;9.77;3.85;;;23.70;75.20;;;;;;4847707;29;20025;-84
2022/05/25 07:00:15;;;;;;;12.93;4.80;;;23.70;75.40;;;;;;4847968;29;20117;-87
2022/05/25 07:02:56;;;;;;;13.38;4.57;;;23.60;76.50;;;;;;4848583;29;20054;-95
2022/05/25 07:05:22;;;;;;;12.48;4.43;;;23.60;76.60;;;;;;4847163;29;20558;-83
2022/05/25 07:07:48;;;;;;;12.13;5.10;;;23.60;75.30;;;;;;4847207;29;20033;-84
2022/05/25 07:10:13;;;;;;;11.45;4.68;;;23.70;75.30;;;;;;4830183;29;20078;-85
2022/05/25 07:12:39;;;;;;;9.25;4.22;;;23.80;74.70;;;;;;4847369;29;20041;-85
2022/05/25 07:15:08;;;;;;;12.50;4.80;;;23.90;72.90;;;;;;4847590;29;20062;-90
2022/05/25 07:17:40;;;;;;;7.78;3.78;;;23.20;72.40;;;;;;4848279;29;20214;-85
2022/05/25 07:20:09;;;;;;;10.68;3.92;;;24.10;73.80;;;;;;4846026;29;20527;-92
2022/05/25 07:22:38;;;;;;;9.50;3.60;;;24.30;72.00;;;;;;4830460;29;20037;-92
2022/05/25 07:25:04;;;;;;;7.72;4.22;;;24.60;71.90;;;;;;4847542;29;20474;-88
2022/05/25 07:27:30;;;;;;;12.23;4.13;;;24.70;70.90;;;;;;4847971;29;20244;-86
2022/05/25 07:29:56;;;;;;;8.57;3.22;;;25.00;67.80;;;;;;4850504;29;20036;-86
2022/05/25 07:32:22;;;;;;;7.03;2.95;;;25.20;67.40;;;;;;4853586;29;20162;-87
2022/05/25 07:40:05;;;;;;;9.15;3.83;;;26.20;67.20;;;;;;4605244;23;20133;-83
2022/05/25 08:35:45;;;;;;;11.98;3.50;;;28.00;59.10;;;;;;4851262;29;20612;-87
2022/05/25 08:38:11;;;;;;;8.20;2.83;;;28.00;60.90;;;;;;4842478;29;20018;-87
2022/05/25 08:40:50;;;;;;;10.25;2.70;;;28.10;59.90;;;;;;4859477;29;20341;-87
2022/05/25 08:43:47;;;;;;;12.52;3.67;;;28.10;59.30;;;;;;4861779;29;20036;-86
2022/05/25 08:46:20;;;;;;;6.93;2.47;;;28.10;57.60;;;;;;4845311;29;20026;-89
2022/05/25 08:48:47;;;;;;;9.13;3.95;;;28.70;56.90;;;;;;4856762;29;20025;-94
2022/05/25 08:51:41;;;;;;;7.40;2.95;;;28.30;57.60;;;;;;4860405;29;20045;-92
2022/05/25 08:54:07;;;;;;;9.48;3.70;;;28.50;55.60;;;;;;4859700;23;20053;-90
2022/05/25 08:56:53;;;;;;;10.70;4.07;;;28.50;56.90;;;;;;4836158;29;20106;-90
2022/05/25 08:59:43;;;;;;;6.03;2.70;;;28.60;57.20;;;;;;4837506;29;20053;-94
2022/05/25 09:02:48;;;;;;;9.93;3.05;;;28.60;56.40;;;;;;4853947;29;20029;-95
2022/05/25 09:05:47;;;;;;;6.63;3.05;;;29.20;55.60;;;;;;4840944;29;20100;-92
2022/05/25 09:09:00;;;;;;;7.60;3.22;;;28.70;54.80;;;;;;4854515;29;20098;-84
2022/05/25 09:12:18;;;;;;;8.77;3.10;;;30.10;55.40;;;;;;4858462;29;20020;-92
2022/05/25 09:14:50;;;;;;;9.30;2.97;;;27.20;53.30;;;;;;4849165;29;20279;-88
2022/05/25 09:17:51;;;;;;;6.80;3.08;;;29.00;54.30;;;;;;4851492;29;20117;-82
2022/05/25 09:20:25;;;;;;;8.07;2.90;;;29.00;54.20;;;;;;4746303;30;20069;-87
2022/05/25 09:22:53;;;;;;;10.30;2.90;;;29.30;54.70;;;;;;4765605;30;20035;-94
2022/05/25 09:25:22;;;;;;;6.10;2.58;;;29.30;54.40;;;;;;4778937;29;20043;-96
2022/05/25 09:28:12;;;;;;;7.75;2.70;;;29.50;53.80;;;;;;4787642;29;20107;-96
2022/05/25 09:30:56;;;;;;;5.97;2.40;;;29.50;53.90;;;;;;4767028;30;20092;-93
2022/05/25 09:33:41;;;;;;;4.53;2.17;;;30.20;54.10;;;;;;4783555;30;20062;-85
2022/05/25 09:36:25;;;;;;;9.52;2.65;;;29.80;53.60;;;;;;4787511;30;20068;-84
2022/05/25 09:39:38;;;;;;;5.53;2.55;;;29.70;53.20;;;;;;4775709;30;20019;-88
2022/05/25 09:42:06;;;;;;;11.88;3.05;;;27.70;50.90;;;;;;4788096;30;20046;-83
2022/05/25 09:44:49;;;;;;;10.27;3.10;;;29.40;51.40;;;;;;4864493;23;20137;-90
2022/05/25 09:47:47;;;;;;;7.03;3.30;;;30.00;52.20;;;;;;4871627;23;20073;-91
2022/05/25 09:50:49;;;;;;;7.80;2.97;;;29.90;52.00;;;;;;4876875;23;20085;-85
2022/05/25 09:53:21;;;;;;;11.07;2.75;;;31.30;51.50;;;;;;4866368;29;20264;-91
2022/05/25 09:56:48;;;;;;;7.33;2.77;;;30.00;50.80;;;;;;4868952;23;20057;-90
2022/05/25 09:59:45;;;;;;;7.22;2.50;;;30.20;50.60;;;;;;4797792;29;20077;-91
2022/05/25 10:02:47;;;;;;;10.18;2.47;;;30.30;49.50;;;;;;4812026;29;20053;-96
2022/05/25 10:05:34;;;;;;;6.37;2.93;;;30.40;48.90;;;;;;4810408;29;20031;-96
2022/05/25 10:12:14;;;;;;;9.45;3.13;;;30.60;49.20;;;;;;4832092;24;20061;-85
2022/05/25 10:17:14;;;;;;;11.23;3.08;;;30.70;47.40;;;;;;4866907;23;20049;-90
2022/05/25 10:19:56;;;;;;;14.20;3.65;;;30.60;47.80;;;;;;4831388;24;20446;-92
2022/05/25 10:22:59;;;;;;;7.65;2.63;;;30.60;47.70;;;;;;4829809;29;20050;-89
2022/05/25 10:25:29;;;;;;;10.30;3.05;;;30.60;47.60;;;;;;4771842;30;20031;-85
2022/05/25 10:28:33;;;;;;;8.73;2.97;;;31.00;49.10;;;;;;4783625;23;20208;-89
2022/05/25 10:37:08;;;;;;;7.32;2.30;;;31.70;48.30;;;;;;4839746;23;20470;-87
2022/05/25 10:42:29;;;;;;;9.20;2.75;;;31.80;47.90;;;;;;4851497;23;20733;-92
2022/05/25 10:45:07;;;;;;;10.68;3.15;;;31.70;46.10;;;;;;4869378;23;20060;-92
2022/05/25 10:47:52;;;;;;;20.27;2.95;;;31.70;46.40;;;;;;4840375;29;20049;-96
2022/05/25 10:50:58;;;;;;;9.27;2.60;;;32.00;46.70;;;;;;4831193;29;20029;-87
2022/05/25 10:56:57;;;;;;;7.55;2.50;;;32.40;46.90;;;;;;4846847;29;20040;-86
2022/05/25 10:59:51;;;;;;;7.95;2.33;;;32.60;45.10;;;;;;4847276;29;20055;-90
2022/05/25 11:02:42;;;;;;;8.07;2.13;;;32.90;44.80;;;;;;4847970;29;20022;-89
2022/05/25 11:05:26;;;;;;;8.05;2.80;;;32.90;44.10;;;;;;4847417;29;20025;-82
2022/05/25 11:08:05;;;;;;;10.85;2.92;;;32.80;44.60;;;;;;4830849;29;20232;-90
2022/05/25 11:10:51;;;;;;;9.95;3.67;;;32.80;44.40;;;;;;4846913;29;20036;-90
2022/05/25 11:13:36;;;;;;;8.68;3.13;;;32.90;43.60;;;;;;4847236;24;20111;-85
2022/05/25 11:16:31;;;;;;;10.38;2.17;;;32.60;42.70;;;;;;4829481;29;20034;-87
2022/05/25 11:19:32;;;;;;;6.72;2.53;;;32.70;41.60;;;;;;4837839;23;20033;-91
2022/05/25 11:22:35;;;;;;;9.30;2.30;;;33.00;42.00;;;;;;4820395;23;20714;-93
2022/05/25 11:25:26;;;;;;;;;;;33.00;42.40;;;;;;4810782;29;20046;-88
2022/05/25 11:28:41;;;;;;;6.95;2.15;;;33.20;42.30;;;;;;4794546;29;19912;-83
2022/05/25 11:31:39;;;;;;;11.25;2.70;;;34.00;39.20;;;;;;4812277;29;20517;-93
2022/05/25 11:37:10;;;;;;;11.95;3.38;;;34.20;39.10;;;;;;4909405;23;20748;-89
2022/05/25 11:42:56;;;;;;;7.47;1.98;;;34.20;38.70;;;;;;4854926;23;20065;-91
2022/05/25 11:45:38;;;;;;;7.03;1.90;;;34.60;38.20;;;;;;4834478;29;20030;-90
2022/05/25 11:48:08;;;;;;;11.40;2.42;;;35.00;39.10;;;;;;4835936;29;20032;-84
2022/05/25 12:10:24;;;;;;;8.27;2.08;;;34.80;29.40;;;;;;5068093;23;20113;-93
2022/05/25 12:12:59;;;;;;;11.65;2.65;;;39.70;33.00;;;;;;4840158;29;20042;-91
2022/05/25 12:16:06;;;;;;;6.53;2.35;;;37.00;31.80;;;;;;5028786;24;20019;-93
2022/05/25 12:21:40;;;;;;;7.03;1.52;;;37.30;32.80;;;;;;5121882;23;20694;-95
2022/05/25 12:27:12;;;;;;;11.07;3.40;;;35.10;32.70;;;;;;4881154;23;20073;-87
2022/05/25 12:30:40;;;;;;;7.90;2.25;;;34.60;33.70;;;;;;4851972;29;20021;-94
2022/05/25 12:36:05;;;;;;;8.38;1.83;;;33.80;34.40;;;;;;4793784;29;20242;-86
2022/05/25 12:38:32;;;;;;;9.73;2.35;;;34.40;35.50;;;;;;4825701;29;20033;-85
2022/05/25 12:41:31;;;;;;;7.38;2.28;;;34.20;34.30;;;;;;4850792;29;20032;-87
2022/05/25 13:06:21;;;;;;;10.63;3.10;;;36.00;35.10;;;;;;2712341;23;20116;-92
2022/05/25 13:09:04;;;;;;;10.38;3.30;;;36.10;35.70;;;;;;4853028;29;20026;-86
2022/05/25 13:11:38;;;;;;;6.35;2.30;;;36.40;34.80;;;;;;4833563;29;20026;-93
2022/05/25 13:14:32;;;;;;;8.52;2.45;;;37.00;34.50;;;;;;4833566;29;20021;-87
2022/05/25 13:17:00;;;;;;;9.07;2.28;;;37.10;35.10;;;;;;4833978;29;20036;-88
2022/05/25 13:20:18;;;;;;;10.93;2.70;;;37.20;34.10;;;;;;4833422;29;20086;-92
2022/05/25 13:22:45;;;;;;;10.60;2.42;;;37.00;34.50;;;;;;4833101;29;20037;-87
2022/05/25 13:26:07;;;;;;;6.78;2.63;;;35.60;33.60;;;;;;4840491;23;20022;-88
2022/05/25 13:29:16;;;;;;;6.90;2.20;;;34.50;33.80;;;;;;4837406;24;20073;-92
2022/05/25 13:32:14;;;;;;;10.63;2.47;;;35.70;34.50;;;;;;4816380;29;20701;-91
2022/05/25 13:34:51;;;;;;;5.43;1.83;;;35.70;34.80;;;;;;4815827;29;20026;-91
2022/05/25 13:37:37;;;;;;;7.72;2.45;;;36.20;36.90;;;;;;4832475;29;20570;-93
2022/05/25 13:40:06;;;;;;;10.88;2.80;;;35.60;35.30;;;;;;4808854;29;20752;-91
2022/05/25 13:42:40;;;;;;;12.23;2.78;;;35.70;35.30;;;;;;4808642;29;20138;-85
2022/05/25 13:45:09;;;;;;;5.65;2.05;;;35.30;35.60;;;;;;4793840;29;20038;-89
2022/05/25 13:47:53;;;;;;;11.52;2.58;;;35.10;35.70;;;;;;4809936;29;20529;-85
2022/05/25 13:50:30;;;;;;;11.82;3.08;;;35.20;36.00;;;;;;4795243;29;20030;-93
2022/05/25 13:52:59;;;;;;;7.50;2.47;;;35.20;36.50;;;;;;4809813;29;20041;-93
2022/05/25 13:55:35;;;;;;;9.63;2.22;;;34.60;38.60;;;;;;4809308;29;20347;-91
2022/05/25 13:58:01;;;;;;;7.55;2.13;;;;;;;;;;4806803;23;20034;-83
2022/05/25 14:01:04;;;;;;;8.00;2.10;;;33.60;37.00;;;;;;4829998;29;20132;-89
2022/05/25 14:03:54;;;;;;;9.13;3.50;;;33.50;38.50;;;;;;4758584;30;20073;-92
2022/05/25 14:47:57;;;;;;;9.15;2.08;;;33.70;35.30;;;;;;6218220;22;20028;-93
2022/05/25 15:05:37;;;;;;;9.07;2.40;;;32.60;35.20;;;;;;6059468;23;20106;-84
2022/05/25 15:08:04;;;;;;;9.52;2.80;;;33.30;35.20;;;;;;6057576;23;20474;-88
2022/05/25 15:28:29;;;;;;;8.88;3.05;;;34.70;33.50;;;;;;6175478;22;20029;-94
2022/05/25 15:31:33;;;;;;;8.90;2.22;;;34.70;34.00;;;;;;6143510;22;20017;-93
2022/05/25 15:42:53;;;;;;;7.82;1.98;;;31.90;36.50;;;;;;6201734;22;20023;-86
2022/05/25 16:10:07;;;;;;;9.88;2.92;;;35.70;36.20;;;;;;6239156;22;20075;-83
2022/05/25 16:15:12;;;;;;;11.52;3.67;;;36.00;36.50;;;;;;6230162;22;20035;-88
2022/05/25 17:09:53;;;;;;;9.55;2.45;;;29.90;37.10;;;;;;6202181;22;20024;-87
2022/05/25 18:11:06;;;;;;;6.20;2.30;;;26.50;40.70;;;;;;6212121;22;20051;-94
2022/05/25 18:16:19;;;;;;;9.50;4.03;;;26.30;41.20;;;;;;6226850;22;20032;-87
2022/05/25 18:24:50;;;;;;;5.93;2.15;;;25.90;41.50;;;;;;6216262;22;20031;-87
2022/05/25 18:27:31;;;;;;;6.18;2.42;;;25.10;42.10;;;;;;6165229;23;20033;-93
2022/05/25 18:36:31;;;;;;;9.50;2.85;;;25.60;42.60;;;;;;6214642;22;20044;-95
2022/05/25 18:48:25;;;;;;;6.90;2.63;;;25.30;43.30;;;;;;6209970;22;20021;-87
2022/05/25 19:31:19;;;;;;;7.82;2.20;;;24.30;46.60;;;;;;6212685;22;20029;-94
2022/05/25 19:33:57;;;;;;;6.43;2.20;;;24.30;48.00;;;;;;6212016;23;20075;-93
2022/05/25 19:39:15;;;;;;;7.03;2.65;;;24.20;50.70;;;;;;6209954;23;20021;-85
2022/05/25 19:42:17;;;;;;;6.85;2.42;;;24.10;49.30;;;;;;6181550;23;20012;-80
2022/05/25 19:44:50;;;;;;;5.68;2.10;;;24.30;48.50;;;;;;6178522;23;20524;-91
2022/05/25 19:47:18;;;;;;;8.57;2.35;;;23.90;56.00;;;;;;6178538;23;20682;-83
2022/05/25 19:52:41;;;;;;;13.00;4.03;;;23.80;50.00;;;;;;6212536;22;20226;-92
2022/05/25 19:55:08;;;;;;;8.35;2.97;;;23.80;51.40;;;;;;6208760;23;20000;-82
2022/05/25 19:57:42;;;;;;;7.47;2.58;;;23.40;50.60;;;;;;6210898;23;20028;-95
2022/05/25 20:00:20;;;;;;;9.73;3.17;;;23.40;55.90;;;;;;6210869;23;20724;-94
2022/05/25 20:02:50;;;;;;;6.72;2.58;;;23.40;55.60;;;;;;6217284;23;20001;-92
2022/05/25 20:05:19;;;;;;;7.30;2.47;;;23.30;52.30;;;;;;6222970;23;20009;-93
2022/05/25 20:07:48;;;;;;;6.13;2.17;;;23.30;56.10;;;;;;6216972;23;19999;-84
2022/05/25 20:10:15;;;;;;;5.20;1.90;;;23.20;52.90;;;;;;6191085;23;20070;-91
2022/05/25 20:12:41;;;;;;;3.40;1.92;;;23.20;57.70;;;;;;6218896;23;20159;-87
2022/05/25 20:15:08;;;;;;;9.27;2.63;;;23.20;59.60;;;;;;6220115;23;20674;-83
2022/05/25 20:17:43;;;;;;;7.05;2.30;;;22.00;58.00;;;;;;6194868;23;20005;-81
2022/05/25 20:20:20;;;;;;;6.70;2.88;;;23.80;60.80;;;;;;6224175;23;20001;-80
2022/05/25 20:22:58;;;;;;;6.30;1.95;;;23.20;60.10;;;;;;6219815;23;20004;-96
2022/05/25 20:28:53;;;;;;;6.28;2.33;;;22.90;60.00;;;;;;6219191;23;20423;-92
2022/05/25 20:31:26;;;;;;;6.63;2.47;;;23.10;61.10;;;;;;6216625;23;20011;-82
2022/05/25 20:33:52;;;;;;;;;;;23.00;62.20;;;;;;6163976;23;20000;-80
2022/05/25 20:36:35;;;;;;;5.93;2.10;;;23.10;57.90;;;;;;6207791;23;20181;-89
2022/05/25 20:39:10;;;;;;;4.00;1.92;;;22.90;59.70;;;;;;6177192;23;20107;-94
2022/05/25 20:41:36;;;;;;;5.45;2.33;;;23.40;61.40;;;;;;6205712;23;19997;-81
2022/05/25 20:44:02;;;;;;;5.00;1.90;;;23.00;59.90;;;;;;6214244;23;20235;-84
2022/05/25 20:46:28;;;;;;;7.93;2.83;;;;;;;;;;6208185;23;20008;-91